sensor_id;sensor_type;location;lat;lon;timestamp;P1;durP1;ratioP1;P2;durP2;ratioP2
8857;SDS011;4465;50.904;4.696;2022-09-09T00:01:19;7.97;;;1.95;;
8857;SDS011;4465;50.904;4.696;2022-09-09T00:06:32;13.13;;;2.90;;
8857;SDS011;4465;50.904;4.696;2022-09-09T00:09:12;11.63;;;3.10;;
8857;SDS011;4465;50.904;4.696;2022-09-09T00:17:32;9.20;;;2.22;;
8857;SDS011;4465;50.904;4.696;2022-09-09T00:20:10;4.13;;;1.70;;
8857;SDS011;4465;50.904;4.696;2022-09-09T00:22:45;6.50;;;2.10;;
8857;SDS011;4465;50.904;4.696;2022-09-09T00:28:12;7.85;;;2.10;;
8857;SDS011;4465;50.904;4.696;2022-09-09T00:30:43;6.90;;;2.10;;
8857;SDS011;4465;50.904;4.696;2022-09-09T00:33:13;6.30;;;1.95;;
8857;SDS011;4465;50.904;4.696;2022-09-09T00:35:51;8.60;;;2.10;;
8857;SDS011;4465;50.904;4.696;2022-09-09T00:43:43;6.40;;;2.08;;
8857;SDS011;4465;50.904;4.696;2022-09-09T00:46:49;5.95;;;2.30;;
8857;SDS011;4465;50.904;4.696;2022-09-09T00:49:35;18.02;;;2.92;;
8857;SDS011;4465;50.904;4.696;2022-09-09T00:55:07;8.23;;;1.92;;
8857;SDS011;4465;50.904;4.696;2022-09-09T00:57:57;11.90;;;2.30;;
8857;SDS011;4465;50.904;4.696;2022-09-09T01:00:25;8.40;;;1.90;;
8857;SDS011;4465;50.904;4.696;2022-09-09T01:03:02;9.80;;;2.15;;
8857;SDS011;4465;50.904;4.696;2022-09-09T01:08:03;10.73;;;2.60;;
8857;SDS011;4465;50.904;4.696;2022-09-09T01:13:20;12.35;;;2.60;;
8857;SDS011;4465;50.904;4.696;2022-09-09T01:15:51;5.10;;;1.98;;
8857;SDS011;4465;50.904;4.696;2022-09-09T01:18:20;4.93;;;2.03;;
8857;SDS011;4465;50.904;4.696;2022-09-09T01:21:02;8.27;;;1.77;;
8857;SDS011;4465;50.904;4.696;2022-09-09T01:28:28;8.73;;;2.30;;
8857;SDS011;4465;50.904;4.696;2022-09-09T01:31:00;8.50;;;2.03;;
8857;SDS011;4465;50.904;4.696;2022-09-09T01:33:31;8.07;;;1.60;;
8857;SDS011;4465;50.904;4.696;2022-09-09T01:38:36;5.95;;;2.22;;
8857;SDS011;4465;50.904;4.696;2022-09-09T01:41:03;8.35;;;2.10;;
8857;SDS011;4465;50.904;4.696;2022-09-09T01:43:32;9.10;;;2.80;;
8857;SDS011;4465;50.904;4.696;2022-09-09T01:45:59;15.50;;;2.70;;
8857;SDS011;4465;50.904;4.696;2022-09-09T01:48:26;11.40;;;2.22;;
8857;SDS011;4465;50.904;4.696;2022-09-09T01:53:20;4.47;;;1.98;;
8857;SDS011;4465;50.904;4.696;2022-09-09T01:59:08;10.80;;;2.28;;
8857;SDS011;4465;50.904;4.696;2022-09-09T02:01:48;7.03;;;2.42;;
8857;SDS011;4465;50.904;4.696;2022-09-09T02:04:39;6.93;;;2.03;;
8857;SDS011;4465;50.904;4.696;2022-09-09T02:07:14;8.15;;;2.15;;
8857;SDS011;4465;50.904;4.696;2022-09-09T02:09:47;10.82;;;2.20;;
8857;SDS011;4465;50.904;4.696;2022-09-09T02:12:22;4.28;;;1.90;;
8857;SDS011;4465;50.904;4.696;2022-09-09T02:14:53;7.55;;;2.00;;
8857;SDS011;4465;50.904;4.696;2022-09-09T02:17:26;8.05;;;1.88;;
8857;SDS011;4465;50.904;4.696;2022-09-09T02:20:06;6.90;;;2.22;;
8857;SDS011;4465;50.904;4.696;2022-09-09T02:22:35;16.02;;;2.08;;
8857;SDS011;4465;50.904;4.696;2022-09-09T02:25:05;9.75;;;2.47;;
8857;SDS011;4465;50.904;4.696;2022-09-09T02:27:35;12.68;;;2.10;;
8857;SDS011;4465;50.904;4.696;2022-09-09T02:30:01;7.88;;;1.88;;
8857;SDS011;4465;50.904;4.696;2022-09-09T02:32:29;10.68;;;2.08;;
8857;SDS011;4465;50.904;4.696;2022-09-09T02:35:04;10.57;;;2.15;;
8857;SDS011;4465;50.904;4.696;2022-09-09T02:37:38;6.03;;;1.80;;
8857;SDS011;4465;50.904;4.696;2022-09-09T02:40:06;8.20;;;2.00;;
8857;SDS011;4465;50.904;4.696;2022-09-09T02:42:44;10.18;;;1.88;;
8857;SDS011;4465;50.904;4.696;2022-09-09T02:45:13;8.48;;;2.00;;
8857;SDS011;4465;50.904;4.696;2022-09-09T02:50:34;13.68;;;2.08;;
8857;SDS011;4465;50.904;4.696;2022-09-09T02:55:52;8.68;;;2.20;;
8857;SDS011;4465;50.904;4.696;2022-09-09T02:58:22;9.30;;;2.25;;
8857;SDS011;4465;50.904;4.696;2022-09-09T03:00:50;8.53;;;2.20;;
8857;SDS011;4465;50.904;4.696;2022-09-09T03:05:44;9.65;;;2.08;;
8857;SDS011;4465;50.904;4.696;2022-09-09T03:08:10;7.70;;;2.00;;
8857;SDS011;4465;50.904;4.696;2022-09-09T03:10:38;15.75;;;2.35;;
8857;SDS011;4465;50.904;4.696;2022-09-09T03:13:04;12.60;;;2.40;;
8857;SDS011;4465;50.904;4.696;2022-09-09T03:15:32;8.48;;;2.13;;
8857;SDS011;4465;50.904;4.696;2022-09-09T03:18:00;7.43;;;1.80;;
8857;SDS011;4465;50.904;4.696;2022-09-09T03:20:29;15.57;;;2.47;;
8857;SDS011;4465;50.904;4.696;2022-09-09T03:22:55;10.00;;;2.27;;
8857;SDS011;4465;50.904;4.696;2022-09-09T03:25:24;10.70;;;2.15;;
8857;SDS011;4465;50.904;4.696;2022-09-09T03:27:54;9.48;;;2.20;;
8857;SDS011;4465;50.904;4.696;2022-09-09T03:30:23;11.07;;;2.38;;
8857;SDS011;4465;50.904;4.696;2022-09-09T03:32:50;12.95;;;2.25;;
8857;SDS011;4465;50.904;4.696;2022-09-09T03:35:17;12.80;;;2.13;;
8857;SDS011;4465;50.904;4.696;2022-09-09T03:37:44;11.95;;;2.13;;
8857;SDS011;4465;50.904;4.696;2022-09-09T03:40:10;15.03;;;2.50;;
8857;SDS011;4465;50.904;4.696;2022-09-09T03:42:37;9.05;;;2.35;;
8857;SDS011;4465;50.904;4.696;2022-09-09T03:45:04;8.73;;;2.10;;
8857;SDS011;4465;50.904;4.696;2022-09-09T03:47:32;11.30;;;2.35;;
8857;SDS011;4465;50.904;4.696;2022-09-09T03:49:59;6.30;;;1.65;;
8857;SDS011;4465;50.904;4.696;2022-09-09T03:52:25;10.52;;;2.38;;
8857;SDS011;4465;50.904;4.696;2022-09-09T03:54:52;9.90;;;2.38;;
8857;SDS011;4465;50.904;4.696;2022-09-09T03:57:21;13.02;;;2.30;;
8857;SDS011;4465;50.904;4.696;2022-09-09T03:59:47;12.18;;;2.35;;
8857;SDS011;4465;50.904;4.696;2022-09-09T04:02:14;17.10;;;3.22;;
8857;SDS011;4465;50.904;4.696;2022-09-09T04:04:40;12.15;;;2.65;;
8857;SDS011;4465;50.904;4.696;2022-09-09T04:07:06;15.60;;;2.38;;
8857;SDS011;4465;50.904;4.696;2022-09-09T04:09:33;11.48;;;2.33;;
8857;SDS011;4465;50.904;4.696;2022-09-09T04:12:00;10.02;;;2.10;;
8857;SDS011;4465;50.904;4.696;2022-09-09T04:14:26;11.20;;;2.15;;
8857;SDS011;4465;50.904;4.696;2022-09-09T04:16:54;13.15;;;2.55;;
8857;SDS011;4465;50.904;4.696;2022-09-09T04:19:25;10.77;;;2.42;;
8857;SDS011;4465;50.904;4.696;2022-09-09T04:21:53;10.40;;;2.55;;
8857;SDS011;4465;50.904;4.696;2022-09-09T04:24:19;11.93;;;2.15;;
8857;SDS011;4465;50.904;4.696;2022-09-09T04:26:46;15.00;;;2.10;;
8857;SDS011;4465;50.904;4.696;2022-09-09T04:29:15;12.20;;;2.40;;
8857;SDS011;4465;50.904;4.696;2022-09-09T04:31:41;10.10;;;2.40;;
8857;SDS011;4465;50.904;4.696;2022-09-09T04:34:08;12.32;;;2.85;;
8857;SDS011;4465;50.904;4.696;2022-09-09T04:36:39;8.98;;;2.60;;
8857;SDS011;4465;50.904;4.696;2022-09-09T04:39:07;13.60;;;2.53;;
8857;SDS011;4465;50.904;4.696;2022-09-09T04:41:36;10.98;;;2.20;;
8857;SDS011;4465;50.904;4.696;2022-09-09T04:44:03;9.02;;;2.22;;
8857;SDS011;4465;50.904;4.696;2022-09-09T04:46:29;11.10;;;2.45;;
8857;SDS011;4465;50.904;4.696;2022-09-09T04:48:54;13.27;;;2.65;;
8857;SDS011;4465;50.904;4.696;2022-09-09T04:51:23;7.05;;;2.08;;
8857;SDS011;4465;50.904;4.696;2022-09-09T04:53:52;16.67;;;2.78;;
8857;SDS011;4465;50.904;4.696;2022-09-09T04:56:19;17.77;;;3.42;;
8857;SDS011;4465;50.904;4.696;2022-09-09T04:58:45;14.98;;;2.10;;
8857;SDS011;4465;50.904;4.696;2022-09-09T05:01:15;12.38;;;2.40;;
8857;SDS011;4465;50.904;4.696;2022-09-09T05:03:46;7.68;;;2.40;;
8857;SDS011;4465;50.904;4.696;2022-09-09T05:06:13;9.95;;;2.47;;
8857;SDS011;4465;50.904;4.696;2022-09-09T05:08:41;10.07;;;2.45;;
8857;SDS011;4465;50.904;4.696;2022-09-09T05:13:55;14.27;;;3.03;;
8857;SDS011;4465;50.904;4.696;2022-09-09T05:16:24;9.77;;;2.42;;
8857;SDS011;4465;50.904;4.696;2022-09-09T05:18:57;11.10;;;2.88;;
8857;SDS011;4465;50.904;4.696;2022-09-09T05:21:26;12.57;;;2.65;;
8857;SDS011;4465;50.904;4.696;2022-09-09T05:23:53;17.75;;;2.40;;
8857;SDS011;4465;50.904;4.696;2022-09-09T05:26:22;10.95;;;2.70;;
8857;SDS011;4465;50.904;4.696;2022-09-09T05:28:49;17.23;;;3.65;;
8857;SDS011;4465;50.904;4.696;2022-09-09T05:31:16;9.00;;;2.63;;
8857;SDS011;4465;50.904;4.696;2022-09-09T05:33:46;12.63;;;2.83;;
8857;SDS011;4465;50.904;4.696;2022-09-09T05:36:14;18.35;;;3.22;;
8857;SDS011;4465;50.904;4.696;2022-09-09T05:38:44;19.75;;;3.50;;
8857;SDS011;4465;50.904;4.696;2022-09-09T05:41:11;16.67;;;3.30;;
8857;SDS011;4465;50.904;4.696;2022-09-09T05:43:38;17.35;;;3.17;;
8857;SDS011;4465;50.904;4.696;2022-09-09T05:46:08;15.70;;;2.72;;
8857;SDS011;4465;50.904;4.696;2022-09-09T05:48:39;11.93;;;2.90;;
8857;SDS011;4465;50.904;4.696;2022-09-09T05:51:07;16.25;;;2.90;;
8857;SDS011;4465;50.904;4.696;2022-09-09T05:53:40;10.05;;;2.95;;
8857;SDS011;4465;50.904;4.696;2022-09-09T05:56:16;12.00;;;2.88;;
8857;SDS011;4465;50.904;4.696;2022-09-09T05:58:46;17.98;;;3.20;;
8857;SDS011;4465;50.904;4.696;2022-09-09T06:01:14;17.58;;;3.58;;
8857;SDS011;4465;50.904;4.696;2022-09-09T06:03:42;20.40;;;3.38;;
8857;SDS011;4465;50.904;4.696;2022-09-09T06:06:10;21.45;;;3.13;;
8857;SDS011;4465;50.904;4.696;2022-09-09T06:09:05;15.68;;;3.22;;
8857;SDS011;4465;50.904;4.696;2022-09-09T06:11:35;10.50;;;2.97;;
8857;SDS011;4465;50.904;4.696;2022-09-09T06:14:05;10.63;;;2.42;;
8857;SDS011;4465;50.904;4.696;2022-09-09T06:16:34;14.80;;;3.08;;
8857;SDS011;4465;50.904;4.696;2022-09-09T06:19:05;11.38;;;2.30;;
8857;SDS011;4465;50.904;4.696;2022-09-09T06:21:32;13.70;;;2.50;;
8857;SDS011;4465;50.904;4.696;2022-09-09T06:24:03;16.40;;;2.63;;
8857;SDS011;4465;50.904;4.696;2022-09-09T06:26:31;10.88;;;2.92;;
8857;SDS011;4465;50.904;4.696;2022-09-09T06:28:58;12.45;;;2.63;;
8857;SDS011;4465;50.904;4.696;2022-09-09T06:31:28;12.13;;;2.40;;
8857;SDS011;4465;50.904;4.696;2022-09-09T06:34:03;13.95;;;2.78;;
8857;SDS011;4465;50.904;4.696;2022-09-09T06:36:32;14.30;;;2.70;;
8857;SDS011;4465;50.904;4.696;2022-09-09T06:39:03;15.55;;;2.53;;
8857;SDS011;4465;50.904;4.696;2022-09-09T06:43:58;11.85;;;2.78;;
8857;SDS011;4465;50.904;4.696;2022-09-09T06:46:28;14.07;;;3.13;;
8857;SDS011;4465;50.904;4.696;2022-09-09T06:48:57;13.27;;;2.35;;
8857;SDS011;4465;50.904;4.696;2022-09-09T06:51:26;13.45;;;3.03;;
8857;SDS011;4465;50.904;4.696;2022-09-09T06:53:54;12.50;;;3.10;;
8857;SDS011;4465;50.904;4.696;2022-09-09T06:56:28;15.20;;;2.75;;
8857;SDS011;4465;50.904;4.696;2022-09-09T06:59:00;18.80;;;3.03;;
8857;SDS011;4465;50.904;4.696;2022-09-09T07:01:30;14.60;;;3.05;;
8857;SDS011;4465;50.904;4.696;2022-09-09T07:03:58;13.20;;;2.50;;
8857;SDS011;4465;50.904;4.696;2022-09-09T07:06:28;17.20;;;2.60;;
8857;SDS011;4465;50.904;4.696;2022-09-09T07:09:05;13.50;;;2.63;;
8857;SDS011;4465;50.904;4.696;2022-09-09T07:11:34;11.88;;;2.85;;
8857;SDS011;4465;50.904;4.696;2022-09-09T07:14:16;8.57;;;2.30;;
8857;SDS011;4465;50.904;4.696;2022-09-09T07:16:45;19.45;;;2.50;;
8857;SDS011;4465;50.904;4.696;2022-09-09T07:19:12;13.85;;;2.63;;
8857;SDS011;4465;50.904;4.696;2022-09-09T07:21:39;8.18;;;2.28;;
8857;SDS011;4465;50.904;4.696;2022-09-09T07:24:06;11.40;;;2.40;;
8857;SDS011;4465;50.904;4.696;2022-09-09T07:26:35;15.23;;;2.80;;
8857;SDS011;4465;50.904;4.696;2022-09-09T07:29:05;17.80;;;2.30;;
8857;SDS011;4465;50.904;4.696;2022-09-09T07:31:32;16.88;;;2.60;;
8857;SDS011;4465;50.904;4.696;2022-09-09T07:34:02;16.23;;;2.33;;
8857;SDS011;4465;50.904;4.696;2022-09-09T07:36:29;11.60;;;2.60;;
8857;SDS011;4465;50.904;4.696;2022-09-09T07:38:58;10.10;;;2.40;;
8857;SDS011;4465;50.904;4.696;2022-09-09T07:43:57;19.98;;;2.90;;
8857;SDS011;4465;50.904;4.696;2022-09-09T07:46:29;24.52;;;3.05;;
8857;SDS011;4465;50.904;4.696;2022-09-09T07:48:56;10.27;;;2.03;;
8857;SDS011;4465;50.904;4.696;2022-09-09T07:51:23;11.10;;;2.13;;
8857;SDS011;4465;50.904;4.696;2022-09-09T07:53:58;7.88;;;1.83;;
8857;SDS011;4465;50.904;4.696;2022-09-09T07:56:27;12.43;;;2.28;;
8857;SDS011;4465;50.904;4.696;2022-09-09T07:58:55;12.82;;;2.13;;
8857;SDS011;4465;50.904;4.696;2022-09-09T08:01:23;14.77;;;2.50;;
8857;SDS011;4465;50.904;4.696;2022-09-09T08:03:53;17.10;;;2.60;;
8857;SDS011;4465;50.904;4.696;2022-09-09T08:06:25;10.88;;;2.33;;
8857;SDS011;4465;50.904;4.696;2022-09-09T08:08:54;11.32;;;2.70;;
8857;SDS011;4465;50.904;4.696;2022-09-09T08:11:20;20.48;;;2.90;;
8857;SDS011;4465;50.904;4.696;2022-09-09T08:13:51;10.82;;;2.20;;
8857;SDS011;4465;50.904;4.696;2022-09-09T08:16:25;13.60;;;2.35;;
8857;SDS011;4465;50.904;4.696;2022-09-09T08:18:53;14.38;;;2.35;;
8857;SDS011;4465;50.904;4.696;2022-09-09T08:21:23;10.95;;;2.20;;
8857;SDS011;4465;50.904;4.696;2022-09-09T08:23:53;15.05;;;2.25;;
8857;SDS011;4465;50.904;4.696;2022-09-09T08:26:27;10.27;;;2.50;;
8857;SDS011;4465;50.904;4.696;2022-09-09T08:29:01;11.52;;;2.60;;
8857;SDS011;4465;50.904;4.696;2022-09-09T08:31:30;11.32;;;2.40;;
8857;SDS011;4465;50.904;4.696;2022-09-09T08:34:00;10.80;;;2.17;;
8857;SDS011;4465;50.904;4.696;2022-09-09T08:36:31;16.08;;;2.05;;
8857;SDS011;4465;50.904;4.696;2022-09-09T08:38:58;9.50;;;2.15;;
8857;SDS011;4465;50.904;4.696;2022-09-09T08:41:37;12.53;;;2.33;;
8857;SDS011;4465;50.904;4.696;2022-09-09T08:58:17;11.70;;;2.35;;
8857;SDS011;4465;50.904;4.696;2022-09-09T09:01:05;12.25;;;2.33;;
8857;SDS011;4465;50.904;4.696;2022-09-09T09:04:15;10.43;;;2.20;;
8857;SDS011;4465;50.904;4.696;2022-09-09T09:10:10;11.30;;;2.35;;
8857;SDS011;4465;50.904;4.696;2022-09-09T09:12:57;13.82;;;2.50;;
8857;SDS011;4465;50.904;4.696;2022-09-09T09:15:29;10.27;;;2.40;;
8857;SDS011;4465;50.904;4.696;2022-09-09T09:18:02;14.23;;;2.47;;
8857;SDS011;4465;50.904;4.696;2022-09-09T09:20:46;11.02;;;2.45;;
8857;SDS011;4465;50.904;4.696;2022-09-09T09:23:26;11.90;;;2.50;;
8857;SDS011;4465;50.904;4.696;2022-09-09T09:26:01;11.18;;;3.08;;
8857;SDS011;4465;50.904;4.696;2022-09-09T09:28:32;10.02;;;2.55;;
8857;SDS011;4465;50.904;4.696;2022-09-09T09:36:06;14.52;;;2.47;;
8857;SDS011;4465;50.904;4.696;2022-09-09T09:38:34;15.40;;;2.92;;
8857;SDS011;4465;50.904;4.696;2022-09-09T09:41:01;10.00;;;2.33;;
8857;SDS011;4465;50.904;4.696;2022-09-09T09:45:59;12.40;;;2.55;;
8857;SDS011;4465;50.904;4.696;2022-09-09T09:48:28;12.98;;;2.83;;
8857;SDS011;4465;50.904;4.696;2022-09-09T09:53:24;9.43;;;2.60;;
8857;SDS011;4465;50.904;4.696;2022-09-09T09:56:02;13.23;;;2.60;;
8857;SDS011;4465;50.904;4.696;2022-09-09T09:58:33;12.40;;;2.65;;
8857;SDS011;4465;50.904;4.696;2022-09-09T10:01:26;10.60;;;2.40;;
8857;SDS011;4465;50.904;4.696;2022-09-09T10:03:59;11.57;;;2.85;;
8857;SDS011;4465;50.904;4.696;2022-09-09T10:06:34;8.80;;;2.40;;
8857;SDS011;4465;50.904;4.696;2022-09-09T10:09:04;9.93;;;2.67;;
8857;SDS011;4465;50.904;4.696;2022-09-09T10:12:05;11.00;;;2.78;;
8857;SDS011;4465;50.904;4.696;2022-09-09T10:17:12;12.70;;;2.80;;
8857;SDS011;4465;50.904;4.696;2022-09-09T10:19:59;9.90;;;2.28;;
8857;SDS011;4465;50.904;4.696;2022-09-09T10:22:58;11.00;;;2.45;;
8857;SDS011;4465;50.904;4.696;2022-09-09T10:26:08;10.70;;;2.47;;
8857;SDS011;4465;50.904;4.696;2022-09-09T10:28:46;13.55;;;2.47;;
8857;SDS011;4465;50.904;4.696;2022-09-09T10:31:39;17.23;;;2.83;;
8857;SDS011;4465;50.904;4.696;2022-09-09T10:37:31;9.63;;;2.05;;
8857;SDS011;4465;50.904;4.696;2022-09-09T10:40:02;8.77;;;2.67;;
8857;SDS011;4465;50.904;4.696;2022-09-09T10:42:48;8.70;;;2.22;;
8857;SDS011;4465;50.904;4.696;2022-09-09T10:45:17;10.75;;;2.30;;
8857;SDS011;4465;50.904;4.696;2022-09-09T10:47:51;14.23;;;3.03;;
8857;SDS011;4465;50.904;4.696;2022-09-09T10:55:56;8.32;;;2.10;;
8857;SDS011;4465;50.904;4.696;2022-09-09T10:58:35;13.30;;;2.60;;
8857;SDS011;4465;50.904;4.696;2022-09-09T11:01:13;15.63;;;3.30;;
8857;SDS011;4465;50.904;4.696;2022-09-09T11:03:46;12.35;;;2.60;;
8857;SDS011;4465;50.904;4.696;2022-09-09T11:06:20;12.02;;;2.28;;
8857;SDS011;4465;50.904;4.696;2022-09-09T11:08:53;8.48;;;2.30;;
8857;SDS011;4465;50.904;4.696;2022-09-09T11:11:21;9.63;;;2.47;;
8857;SDS011;4465;50.904;4.696;2022-09-09T11:16:35;9.95;;;2.88;;
8857;SDS011;4465;50.904;4.696;2022-09-09T11:19:24;17.00;;;2.65;;
8857;SDS011;4465;50.904;4.696;2022-09-09T11:21:58;13.27;;;2.65;;
8857;SDS011;4465;50.904;4.696;2022-09-09T11:27:26;8.60;;;2.30;;
8857;SDS011;4465;50.904;4.696;2022-09-09T11:40:53;13.65;;;2.42;;
8857;SDS011;4465;50.904;4.696;2022-09-09T11:43:58;7.38;;;1.80;;
8857;SDS011;4465;50.904;4.696;2022-09-09T11:46:31;7.53;;;1.83;;
8857;SDS011;4465;50.904;4.696;2022-09-09T11:49:04;10.77;;;2.65;;
8857;SDS011;4465;50.904;4.696;2022-09-09T11:51:32;9.30;;;2.30;;
8857;SDS011;4465;50.904;4.696;2022-09-09T11:56:46;9.02;;;2.05;;
8857;SDS011;4465;50.904;4.696;2022-09-09T11:59:19;9.02;;;2.15;;
8857;SDS011;4465;50.904;4.696;2022-09-09T12:02:13;7.05;;;1.80;;
8857;SDS011;4465;50.904;4.696;2022-09-09T12:04:47;10.73;;;1.77;;
8857;SDS011;4465;50.904;4.696;2022-09-09T12:07:30;8.85;;;1.70;;
8857;SDS011;4465;50.904;4.696;2022-09-09T12:10:25;7.85;;;1.92;;
8857;SDS011;4465;50.904;4.696;2022-09-09T12:15:47;6.97;;;2.00;;
8857;SDS011;4465;50.904;4.696;2022-09-09T12:18:25;5.65;;;1.42;;
8857;SDS011;4465;50.904;4.696;2022-09-09T12:23:42;7.50;;;1.90;;
8857;SDS011;4465;50.904;4.696;2022-09-09T12:31:54;8.15;;;1.70;;
8857;SDS011;4465;50.904;4.696;2022-09-09T12:34:31;7.40;;;1.50;;
8857;SDS011;4465;50.904;4.696;2022-09-09T12:40:03;5.32;;;1.70;;
8857;SDS011;4465;50.904;4.696;2022-09-09T12:42:31;7.10;;;1.63;;
8857;SDS011;4465;50.904;4.696;2022-09-09T12:45:02;4.97;;;1.70;;
8857;SDS011;4465;50.904;4.696;2022-09-09T12:47:44;5.90;;;1.65;;
8857;SDS011;4465;50.904;4.696;2022-09-09T12:50:44;7.78;;;1.98;;
8857;SDS011;4465;50.904;4.696;2022-09-09T12:53:26;6.18;;;1.75;;
8857;SDS011;4465;50.904;4.696;2022-09-09T12:56:08;3.95;;;1.40;;
8857;SDS011;4465;50.904;4.696;2022-09-09T12:58:45;6.60;;;1.52;;
8857;SDS011;4465;50.904;4.696;2022-09-09T13:01:22;4.90;;;1.55;;
8857;SDS011;4465;50.904;4.696;2022-09-09T13:03:56;9.50;;;1.75;;
8857;SDS011;4465;50.904;4.696;2022-09-09T13:06:23;5.82;;;1.67;;
8857;SDS011;4465;50.904;4.696;2022-09-09T13:09:00;6.72;;;1.60;;
8857;SDS011;4465;50.904;4.696;2022-09-09T13:11:33;4.22;;;1.42;;
8857;SDS011;4465;50.904;4.696;2022-09-09T13:14:22;7.80;;;1.88;;
8857;SDS011;4465;50.904;4.696;2022-09-09T13:16:58;7.38;;;1.80;;
8857;SDS011;4465;50.904;4.696;2022-09-09T13:19:26;7.57;;;1.52;;
8857;SDS011;4465;50.904;4.696;2022-09-09T13:22:17;8.65;;;2.03;;
8857;SDS011;4465;50.904;4.696;2022-09-09T13:24:47;5.97;;;1.50;;
8857;SDS011;4465;50.904;4.696;2022-09-09T13:28:03;6.70;;;1.42;;
8857;SDS011;4465;50.904;4.696;2022-09-09T13:30:34;3.45;;;1.00;;
8857;SDS011;4465;50.904;4.696;2022-09-09T13:33:04;4.30;;;1.08;;
8857;SDS011;4465;50.904;4.696;2022-09-09T13:35:50;3.90;;;1.27;;
8857;SDS011;4465;50.904;4.696;2022-09-09T13:38:21;5.35;;;1.33;;
8857;SDS011;4465;50.904;4.696;2022-09-09T13:40:54;3.53;;;1.30;;
8857;SDS011;4465;50.904;4.696;2022-09-09T13:43:31;4.18;;;1.20;;
8857;SDS011;4465;50.904;4.696;2022-09-09T13:49:22;5.93;;;1.25;;
8857;SDS011;4465;50.904;4.696;2022-09-09T13:54:19;4.70;;;1.80;;
8857;SDS011;4465;50.904;4.696;2022-09-09T13:56:46;3.78;;;1.45;;
8857;SDS011;4465;50.904;4.696;2022-09-09T13:59:16;5.55;;;1.30;;
8857;SDS011;4465;50.904;4.696;2022-09-09T14:01:45;4.85;;;1.20;;
8857;SDS011;4465;50.904;4.696;2022-09-09T14:04:11;4.85;;;1.58;;
8857;SDS011;4465;50.904;4.696;2022-09-09T14:06:38;2.63;;;0.93;;
8857;SDS011;4465;50.904;4.696;2022-09-09T14:09:05;5.80;;;1.48;;
8857;SDS011;4465;50.904;4.696;2022-09-09T14:11:32;3.15;;;1.20;;
8857;SDS011;4465;50.904;4.696;2022-09-09T14:13:59;5.28;;;1.63;;
8857;SDS011;4465;50.904;4.696;2022-09-09T14:16:26;3.72;;;1.10;;
8857;SDS011;4465;50.904;4.696;2022-09-09T14:18:53;3.97;;;1.33;;
8857;SDS011;4465;50.904;4.696;2022-09-09T14:21:22;5.03;;;1.10;;
8857;SDS011;4465;50.904;4.696;2022-09-09T14:23:51;4.38;;;1.10;;
8857;SDS011;4465;50.904;4.696;2022-09-09T14:26:23;4.88;;;1.70;;
8857;SDS011;4465;50.904;4.696;2022-09-09T14:28:50;5.55;;;1.45;;
8857;SDS011;4465;50.904;4.696;2022-09-09T14:31:17;6.30;;;1.50;;
8857;SDS011;4465;50.904;4.696;2022-09-09T14:33:44;2.88;;;1.20;;
8857;SDS011;4465;50.904;4.696;2022-09-09T14:36:10;3.83;;;1.20;;
8857;SDS011;4465;50.904;4.696;2022-09-09T14:38:37;6.50;;;1.27;;
8857;SDS011;4465;50.904;4.696;2022-09-09T14:41:09;4.00;;;1.45;;
8857;SDS011;4465;50.904;4.696;2022-09-09T14:43:37;4.30;;;1.10;;
8857;SDS011;4465;50.904;4.696;2022-09-09T14:46:04;3.88;;;1.40;;
8857;SDS011;4465;50.904;4.696;2022-09-09T14:48:35;8.50;;;1.60;;
8857;SDS011;4465;50.904;4.696;2022-09-09T14:51:09;4.55;;;1.38;;
8857;SDS011;4465;50.904;4.696;2022-09-09T14:53:43;8.73;;;1.50;;
8857;SDS011;4465;50.904;4.696;2022-09-09T14:56:19;5.53;;;1.48;;
8857;SDS011;4465;50.904;4.696;2022-09-09T14:58:52;7.40;;;1.45;;
8857;SDS011;4465;50.904;4.696;2022-09-09T15:01:22;5.30;;;1.45;;
8857;SDS011;4465;50.904;4.696;2022-09-09T15:06:17;6.22;;;1.40;;
8857;SDS011;4465;50.904;4.696;2022-09-09T15:08:44;4.55;;;1.88;;
8857;SDS011;4465;50.904;4.696;2022-09-09T15:11:12;11.40;;;1.77;;
8857;SDS011;4465;50.904;4.696;2022-09-09T15:13:39;4.80;;;1.25;;
8857;SDS011;4465;50.904;4.696;2022-09-09T15:16:07;5.75;;;2.00;;
8857;SDS011;4465;50.904;4.696;2022-09-09T15:18:35;4.95;;;1.40;;
8857;SDS011;4465;50.904;4.696;2022-09-09T15:21:06;6.60;;;1.42;;
8857;SDS011;4465;50.904;4.696;2022-09-09T15:23:33;6.47;;;1.60;;
8857;SDS011;4465;50.904;4.696;2022-09-09T15:26:00;8.60;;;1.85;;
8857;SDS011;4465;50.904;4.696;2022-09-09T15:28:26;4.47;;;1.55;;
8857;SDS011;4465;50.904;4.696;2022-09-09T15:30:54;7.40;;;1.95;;
8857;SDS011;4465;50.904;4.696;2022-09-09T15:33:24;6.78;;;1.40;;
8857;SDS011;4465;50.904;4.696;2022-09-09T15:35:50;7.00;;;1.13;;
8857;SDS011;4465;50.904;4.696;2022-09-09T15:38:17;4.85;;;1.50;;
8857;SDS011;4465;50.904;4.696;2022-09-09T15:40:44;5.30;;;1.15;;
8857;SDS011;4465;50.904;4.696;2022-09-09T15:43:12;5.18;;;1.50;;
8857;SDS011;4465;50.904;4.696;2022-09-09T15:45:38;11.88;;;1.77;;
8857;SDS011;4465;50.904;4.696;2022-09-09T15:48:09;6.03;;;1.40;;
8857;SDS011;4465;50.904;4.696;2022-09-09T15:50:35;4.15;;;1.63;;
8857;SDS011;4465;50.904;4.696;2022-09-09T15:53:01;4.32;;;1.45;;
8857;SDS011;4465;50.904;4.696;2022-09-09T15:55:28;5.55;;;1.42;;
8857;SDS011;4465;50.904;4.696;2022-09-09T15:57:54;7.97;;;1.60;;
8857;SDS011;4465;50.904;4.696;2022-09-09T16:00:21;6.28;;;1.40;;
8857;SDS011;4465;50.904;4.696;2022-09-09T16:05:14;5.10;;;1.17;;
8857;SDS011;4465;50.904;4.696;2022-09-09T16:07:43;6.38;;;1.70;;
8857;SDS011;4465;50.904;4.696;2022-09-09T16:10:10;4.28;;;1.23;;
8857;SDS011;4465;50.904;4.696;2022-09-09T16:12:36;13.83;;;1.70;;
8857;SDS011;4465;50.904;4.696;2022-09-09T16:15:04;9.13;;;2.65;;
8857;SDS011;4465;50.904;4.696;2022-09-09T16:17:30;6.05;;;1.48;;
8857;SDS011;4465;50.904;4.696;2022-09-09T16:20:02;5.50;;;1.27;;
8857;SDS011;4465;50.904;4.696;2022-09-09T16:22:30;7.97;;;2.55;;
8857;SDS011;4465;50.904;4.696;2022-09-09T16:24:56;6.72;;;1.40;;
8857;SDS011;4465;50.904;4.696;2022-09-09T16:27:24;5.38;;;1.60;;
8857;SDS011;4465;50.904;4.696;2022-09-09T16:29:50;6.20;;;1.60;;
8857;SDS011;4465;50.904;4.696;2022-09-09T16:32:16;6.95;;;1.42;;
8857;SDS011;4465;50.904;4.696;2022-09-09T16:34:42;3.83;;;1.58;;
8857;SDS011;4465;50.904;4.696;2022-09-09T16:37:08;6.75;;;1.55;;
8857;SDS011;4465;50.904;4.696;2022-09-09T16:39:36;7.35;;;1.80;;
8857;SDS011;4465;50.904;4.696;2022-09-09T16:42:07;5.03;;;1.65;;
8857;SDS011;4465;50.904;4.696;2022-09-09T16:44:35;3.58;;;1.20;;
8857;SDS011;4465;50.904;4.696;2022-09-09T16:47:01;7.50;;;1.58;;
8857;SDS011;4465;50.904;4.696;2022-09-09T16:49:28;2.65;;;1.25;;
8857;SDS011;4465;50.904;4.696;2022-09-09T16:51:56;4.88;;;1.48;;
8857;SDS011;4465;50.904;4.696;2022-09-09T16:54:23;16.67;;;2.38;;
8857;SDS011;4465;50.904;4.696;2022-09-09T16:56:54;6.80;;;1.88;;
8857;SDS011;4465;50.904;4.696;2022-09-09T16:59:21;5.70;;;1.70;;
8857;SDS011;4465;50.904;4.696;2022-09-09T17:01:50;4.70;;;1.67;;
8857;SDS011;4465;50.904;4.696;2022-09-09T17:04:18;4.22;;;1.50;;
8857;SDS011;4465;50.904;4.696;2022-09-09T17:06:47;8.27;;;1.67;;
8857;SDS011;4465;50.904;4.696;2022-09-09T17:09:20;6.22;;;1.35;;
8857;SDS011;4465;50.904;4.696;2022-09-09T17:11:50;2.97;;;1.33;;
8857;SDS011;4465;50.904;4.696;2022-09-09T17:14:20;2.38;;;1.10;;
8857;SDS011;4465;50.904;4.696;2022-09-09T17:16:47;4.97;;;1.30;;
8857;SDS011;4465;50.904;4.696;2022-09-09T17:19:14;5.63;;;1.25;;
8857;SDS011;4465;50.904;4.696;2022-09-09T17:21:41;5.35;;;1.42;;
8857;SDS011;4465;50.904;4.696;2022-09-09T17:24:07;6.35;;;1.83;;
8857;SDS011;4465;50.904;4.696;2022-09-09T17:26:33;3.53;;;1.50;;
8857;SDS011;4465;50.904;4.696;2022-09-09T17:29:00;5.20;;;1.63;;
8857;SDS011;4465;50.904;4.696;2022-09-09T17:33:55;7.75;;;2.00;;
8857;SDS011;4465;50.904;4.696;2022-09-09T17:36:22;3.92;;;1.15;;
8857;SDS011;4465;50.904;4.696;2022-09-09T17:38:53;5.82;;;1.42;;
8857;SDS011;4465;50.904;4.696;2022-09-09T17:41:21;3.70;;;1.27;;
8857;SDS011;4465;50.904;4.696;2022-09-09T17:43:49;3.72;;;1.23;;
8857;SDS011;4465;50.904;4.696;2022-09-09T17:46:20;6.57;;;1.05;;
8857;SDS011;4465;50.904;4.696;2022-09-09T17:48:52;3.58;;;1.17;;
8857;SDS011;4465;50.904;4.696;2022-09-09T17:51:23;4.43;;;1.30;;
8857;SDS011;4465;50.904;4.696;2022-09-09T17:53:55;5.35;;;1.40;;
8857;SDS011;4465;50.904;4.696;2022-09-09T17:56:24;5.95;;;1.40;;